createdAt,value
2023-05-06T00:00:11.198Z,26.06
2023-05-06T00:01:11.210Z,26.06
2023-05-06T00:02:11.207Z,26.06
2023-05-06T00:03:11.331Z,26.06
2023-05-06T00:04:11.275Z,26.06
2023-05-06T00:05:11.683Z,26.07
2023-05-06T00:06:11.217Z,26.06
2023-05-06T00:07:11.240Z,26.06
2023-05-06T00:08:11.263Z,26.06
2023-05-06T00:09:11.263Z,26.06
2023-05-06T00:10:11.351Z,26.06
2023-05-06T00:11:11.275Z,26.06
2023-05-06T00:12:11.302Z,26.06
2023-05-06T00:13:11.315Z,26.06
2023-05-06T00:14:11.335Z,26.05
2023-05-06T00:15:11.607Z,26.05
2023-05-06T00:16:11.421Z,26.05
2023-05-06T00:17:11.355Z,26.05
2023-05-06T00:18:11.334Z,26.06
2023-05-06T00:19:11.352Z,26.05
2023-05-06T00:20:11.382Z,26.05
2023-05-06T00:21:11.429Z,26.06
2023-05-06T00:22:11.449Z,26.05
2023-05-06T00:23:11.462Z,26.06
2023-05-06T00:24:11.444Z,26.07
2023-05-06T00:25:11.684Z,26.07
2023-05-06T00:26:11.458Z,26.06
2023-05-06T00:27:11.518Z,26.07
2023-05-06T00:28:11.528Z,26.06
2023-05-06T00:29:11.528Z,26.07
2023-05-06T00:30:11.554Z,26.07
2023-05-06T00:31:11.605Z,26.07
2023-05-06T00:32:11.678Z,26.08
2023-05-06T00:33:11.733Z,26.07
2023-05-06T00:34:11.627Z,26.08
2023-05-06T00:35:11.674Z,26.08
2023-05-06T00:36:11.623Z,26.08
2023-05-06T00:37:11.652Z,26.09
2023-05-06T00:38:11.601Z,26.08
2023-05-06T00:39:11.626Z,26.09
2023-05-06T00:40:11.617Z,26.09
2023-05-06T00:41:11.664Z,26.09
2023-05-06T00:42:11.682Z,26.09
2023-05-06T00:43:11.695Z,26.09
2023-05-06T00:44:11.705Z,26.09
2023-05-06T00:45:11.974Z,26.09
2023-05-06T00:46:11.806Z,26.09
2023-05-06T00:47:11.739Z,26.09
2023-05-06T00:48:11.797Z,26.09
2023-05-06T00:49:11.924Z,26.10
2023-05-06T00:50:11.857Z,26.10
2023-05-06T00:51:11.850Z,26.10
2023-05-06T00:52:11.850Z,26.09
2023-05-06T00:53:11.847Z,26.09
2023-05-06T00:54:11.881Z,26.10
2023-05-06T00:55:11.916Z,26.10
2023-05-06T00:56:11.935Z,26.09
2023-05-06T00:57:11.992Z,26.08
2023-05-06T00:58:11.931Z,26.08
2023-05-06T00:59:11.975Z,26.07
2023-05-06T01:00:12.003Z,26.06
2023-05-06T01:01:12.112Z,26.06
2023-05-06T01:02:12.118Z,26.06
2023-05-06T01:03:12.092Z,26.05
2023-05-06T01:04:12.054Z,26.05
2023-05-06T01:05:12.443Z,26.04
2023-05-06T01:06:12.093Z,26.03
2023-05-06T01:07:12.125Z,26.03
2023-05-06T01:08:12.176Z,26.02
2023-05-06T01:09:12.144Z,26.03
2023-05-06T01:10:12.184Z,26.02
2023-05-06T01:11:13.515Z,26.02
2023-05-06T01:12:12.156Z,26.02
2023-05-06T01:13:12.272Z,26.03
2023-05-06T01:14:12.099Z,26.02
2023-05-06T01:15:12.327Z,26.02
2023-05-06T01:16:12.014Z,26.02
2023-05-06T01:17:12.060Z,26.01
2023-05-06T01:18:11.991Z,26.01
2023-05-06T01:19:11.973Z,26.01
2023-05-06T01:20:11.907Z,26.00
2023-05-06T01:21:11.940Z,26.00
2023-05-06T01:22:11.914Z,25.99
2023-05-06T01:23:11.863Z,25.99
2023-05-06T01:24:11.796Z,25.99
2023-05-06T01:25:11.884Z,25.99
2023-05-06T01:26:11.757Z,25.98
2023-05-06T01:27:11.767Z,25.97
2023-05-06T01:28:11.736Z,25.97
2023-05-06T01:29:11.634Z,25.97
2023-05-06T01:30:11.650Z,25.95
2023-05-06T01:31:11.646Z,25.95
2023-05-06T01:32:11.601Z,25.95
2023-05-06T01:33:11.562Z,25.96
2023-05-06T01:34:11.532Z,25.96
2023-05-06T01:35:11.587Z,25.96
2023-05-06T01:36:11.440Z,25.97
2023-05-06T01:37:11.486Z,25.97
2023-05-06T01:38:11.341Z,25.97
2023-05-06T01:39:11.323Z,25.98
2023-05-06T01:40:11.271Z,25.97
2023-05-06T01:41:11.280Z,25.98
2023-05-06T01:42:11.220Z,25.99
2023-05-06T01:43:11.153Z,25.99
2023-05-06T01:44:11.168Z,25.99
2023-05-06T01:45:11.256Z,26.00
2023-05-06T01:46:11.100Z,26.00
2023-05-06T01:47:11.023Z,26.00
2023-05-06T01:48:11.030Z,26.01
2023-05-06T01:49:11.004Z,26.01
2023-05-06T01:50:10.931Z,26.01
2023-05-06T01:51:10.916Z,26.01
2023-05-06T01:52:10.883Z,26.01
2023-05-06T01:53:10.913Z,26.02
2023-05-06T01:54:10.826Z,26.02
2023-05-06T01:55:11.001Z,26.03
2023-05-06T01:56:10.752Z,26.02
2023-05-06T01:57:10.747Z,26.02
2023-05-06T01:58:10.691Z,26.03
2023-05-06T01:59:10.695Z,26.03
2023-05-06T02:00:10.625Z,26.03
2023-05-06T02:01:10.709Z,26.02
2023-05-06T02:02:10.703Z,26.03
2023-05-06T02:03:10.804Z,26.03
2023-05-06T02:04:10.727Z,26.03
2023-05-06T02:05:10.932Z,26.03
2023-05-06T02:06:10.743Z,26.03
2023-05-06T02:07:10.794Z,26.04
2023-05-06T02:08:10.804Z,26.04
2023-05-06T02:09:10.922Z,26.04
2023-05-06T02:10:10.838Z,26.04
2023-05-06T02:11:10.836Z,26.04
2023-05-06T02:12:10.891Z,26.04
2023-05-06T02:13:10.916Z,26.05
2023-05-06T02:14:10.915Z,26.04
2023-05-06T02:15:11.106Z,26.04
2023-05-06T02:16:10.949Z,26.05
2023-05-06T02:17:10.989Z,26.04
2023-05-06T02:18:10.972Z,26.05
2023-05-06T02:19:11.009Z,26.04
2023-05-06T02:20:11.037Z,26.04
2023-05-06T02:21:11.045Z,26.04
2023-05-06T02:22:11.036Z,26.04
2023-05-06T02:23:11.089Z,26.04
2023-05-06T02:24:11.059Z,26.04
2023-05-06T02:25:11.276Z,26.04
2023-05-06T02:26:11.141Z,26.05
2023-05-06T02:27:11.151Z,26.05
2023-05-06T02:28:11.165Z,26.04
2023-05-06T02:29:11.194Z,26.04
2023-05-06T02:30:11.190Z,26.05
2023-05-06T02:31:11.258Z,26.05
2023-05-06T02:32:11.224Z,26.05
2023-05-06T02:33:11.212Z,26.05
2023-05-06T02:34:11.268Z,26.06
2023-05-06T02:35:11.480Z,26.05
2023-05-06T02:36:11.297Z,26.06
2023-05-06T02:37:11.306Z,26.05
2023-05-06T02:38:11.306Z,26.06
2023-05-06T02:39:11.355Z,26.05
2023-05-06T02:40:11.409Z,26.06
2023-05-06T02:41:11.426Z,26.06
2023-05-06T02:42:11.426Z,26.06
2023-05-06T02:43:11.420Z,26.06
2023-05-06T02:44:11.388Z,26.05
2023-05-06T02:45:11.633Z,26.05
2023-05-06T02:46:11.494Z,26.04
2023-05-06T02:47:11.463Z,26.05
2023-05-06T02:48:11.443Z,26.04
2023-05-06T02:49:11.445Z,26.03
2023-05-06T02:50:11.471Z,26.03
2023-05-06T02:51:11.472Z,26.04
2023-05-06T02:52:11.484Z,26.04
2023-05-06T02:53:11.498Z,26.05
2023-05-06T02:54:11.504Z,26.03
2023-05-06T02:55:11.658Z,26.03
2023-05-06T02:56:11.571Z,26.03
2023-05-06T02:57:11.612Z,26.03
2023-05-06T02:58:11.618Z,26.02
2023-05-06T02:59:11.552Z,26.01
2023-05-06T03:00:11.589Z,26.00
2023-05-06T03:01:11.639Z,25.99
2023-05-06T03:02:11.599Z,25.99
2023-05-06T03:03:11.593Z,25.98
2023-05-06T03:04:11.603Z,25.97
2023-05-06T03:05:11.737Z,25.97
2023-05-06T03:06:11.580Z,25.96
2023-05-06T03:07:11.596Z,25.95
2023-05-06T03:08:11.590Z,25.94
2023-05-06T03:09:11.650Z,25.94
2023-05-06T03:10:11.634Z,25.94
2023-05-06T03:11:11.632Z,25.94
2023-05-06T03:12:11.638Z,25.93
2023-05-06T03:13:11.742Z,25.93
2023-05-06T03:14:11.675Z,25.93
2023-05-06T03:15:11.782Z,25.92
2023-05-06T03:16:11.718Z,25.92
2023-05-06T03:17:11.668Z,25.93
2023-05-06T03:18:11.710Z,25.94
2023-05-06T03:19:11.684Z,25.94
2023-05-06T03:20:11.677Z,25.94
2023-05-06T03:21:11.744Z,25.93
2023-05-06T03:22:11.715Z,25.93
2023-05-06T03:23:11.713Z,25.93
2023-05-06T03:24:11.769Z,25.93
2023-05-06T03:25:11.973Z,25.92
2023-05-06T03:26:11.740Z,25.93
2023-05-06T03:27:11.757Z,25.93
2023-05-06T03:28:11.765Z,25.93
2023-05-06T03:29:11.940Z,25.93
2023-05-06T03:30:11.781Z,25.93
2023-05-06T03:31:11.788Z,25.93
2023-05-06T03:32:11.838Z,25.93
2023-05-06T03:33:11.838Z,25.94
2023-05-06T03:34:11.898Z,25.95
2023-05-06T03:35:12.086Z,25.95
2023-05-06T03:36:11.880Z,25.95
2023-05-06T03:37:11.922Z,25.95
2023-05-06T03:38:11.915Z,25.95
2023-05-06T03:39:11.954Z,25.95
2023-05-06T03:40:11.994Z,25.95
2023-05-06T03:41:11.988Z,25.96
2023-05-06T03:42:11.999Z,25.96
2023-05-06T03:43:11.985Z,25.96
2023-05-06T03:44:12.024Z,25.96
2023-05-06T03:45:12.565Z,25.97
2023-05-06T03:46:12.073Z,25.96
2023-05-06T03:47:12.065Z,25.97
2023-05-06T03:48:12.128Z,25.97
2023-05-06T03:49:12.109Z,25.98
2023-05-06T03:50:12.156Z,25.97
2023-05-06T03:51:12.159Z,25.99
2023-05-06T03:52:12.184Z,25.98
2023-05-06T03:53:12.206Z,25.99
2023-05-06T03:54:12.189Z,25.98
2023-05-06T03:55:12.401Z,25.99
2023-05-06T03:56:12.185Z,25.98
2023-05-06T03:57:12.227Z,25.99
2023-05-06T03:58:12.245Z,25.98
2023-05-06T03:59:12.259Z,25.98
2023-05-06T04:00:12.279Z,25.97
2023-05-06T04:01:12.431Z,25.98
2023-05-06T04:02:12.360Z,25.98
2023-05-06T04:03:12.427Z,25.99
2023-05-06T04:04:12.518Z,25.99
2023-05-06T04:05:12.458Z,25.99
2023-05-06T04:06:12.394Z,25.99
2023-05-06T04:07:12.444Z,25.98
2023-05-06T04:08:12.492Z,25.98
2023-05-06T04:09:12.488Z,25.98
2023-05-06T04:10:12.503Z,25.99
2023-05-06T04:11:12.513Z,25.98
2023-05-06T04:12:12.525Z,25.98
2023-05-06T04:13:12.584Z,25.97
2023-05-06T04:14:12.551Z,25.97
2023-05-06T04:15:12.728Z,25.96
2023-05-06T04:16:12.648Z,25.96
2023-05-06T04:17:12.645Z,25.95
2023-05-06T04:18:12.586Z,25.92
2023-05-06T04:19:12.606Z,25.90
2023-05-06T04:20:12.603Z,25.88
2023-05-06T04:21:12.613Z,25.87
2023-05-06T04:22:12.611Z,25.88
2023-05-06T04:23:12.598Z,25.84
2023-05-06T04:24:12.598Z,25.83
2023-05-06T04:25:12.747Z,25.83
2023-05-06T04:26:12.605Z,25.82
2023-05-06T04:27:12.614Z,25.81
2023-05-06T04:28:12.607Z,25.82
2023-05-06T04:29:12.600Z,25.81
2023-05-06T04:30:12.659Z,25.81
2023-05-06T04:31:12.616Z,25.81
2023-05-06T04:32:12.626Z,25.80
2023-05-06T04:33:12.697Z,25.80
2023-05-06T04:34:12.596Z,25.80
2023-05-06T04:35:12.705Z,25.79
2023-05-06T04:36:12.610Z,25.80
2023-05-06T04:37:12.618Z,25.80
2023-05-06T04:38:12.622Z,25.81
2023-05-06T04:39:12.615Z,25.81
2023-05-06T04:40:12.605Z,25.82
2023-05-06T04:41:12.628Z,25.81
2023-05-06T04:42:12.660Z,25.81
2023-05-06T04:43:12.656Z,25.81
2023-05-06T04:44:12.674Z,25.81
2023-05-06T04:45:12.671Z,25.80
2023-05-06T04:46:12.711Z,25.80
2023-05-06T04:47:12.643Z,25.80
2023-05-06T04:48:12.637Z,25.81
2023-05-06T04:49:12.807Z,25.80
2023-05-06T04:50:12.644Z,25.80
2023-05-06T04:51:12.613Z,25.81
2023-05-06T04:52:12.578Z,25.81
2023-05-06T04:53:12.614Z,25.81
2023-05-06T04:54:12.652Z,25.81
2023-05-06T04:55:12.906Z,25.81
2023-05-06T04:56:12.649Z,25.82
2023-05-06T04:57:12.655Z,25.83
2023-05-06T04:58:12.648Z,25.83
2023-05-06T04:59:13.227Z,25.83
2023-05-06T05:00:12.700Z,25.84
2023-05-06T05:01:12.686Z,25.84
2023-05-06T05:02:12.660Z,25.85
2023-05-06T05:03:12.814Z,25.86
2023-05-06T05:04:12.662Z,25.86
2023-05-06T05:05:12.854Z,25.87
2023-05-06T05:06:12.670Z,25.87
2023-05-06T05:07:12.691Z,25.88
2023-05-06T05:08:12.683Z,25.88
2023-05-06T05:09:12.672Z,25.89
2023-05-06T05:10:12.675Z,25.89
2023-05-06T05:11:12.711Z,25.89
2023-05-06T05:12:12.766Z,25.89
2023-05-06T05:13:12.718Z,25.89
2023-05-06T05:14:12.728Z,25.89
2023-05-06T05:15:12.953Z,25.90
2023-05-06T05:16:12.757Z,25.89
2023-05-06T05:17:12.828Z,25.90
2023-05-06T05:18:12.849Z,25.91
2023-05-06T05:19:12.812Z,25.91
2023-05-06T05:20:12.816Z,25.91
2023-05-06T05:21:12.903Z,25.91
2023-05-06T05:22:12.889Z,25.91
2023-05-06T05:23:12.830Z,25.91
2023-05-06T05:24:12.877Z,25.92
2023-05-06T05:25:13.200Z,25.92
2023-05-06T05:26:12.857Z,25.92
2023-05-06T05:27:12.860Z,25.90
2023-05-06T05:28:12.815Z,25.90
2023-05-06T05:29:13.732Z,25.90
2023-05-06T05:30:12.813Z,25.88
2023-05-06T05:31:12.821Z,25.87
2023-05-06T05:32:12.810Z,25.86
2023-05-06T05:33:12.851Z,25.84
2023-05-06T05:34:12.789Z,25.85
2023-05-06T05:35:12.826Z,25.84
2023-05-06T05:36:12.787Z,25.84
2023-05-06T05:37:12.853Z,25.83
2023-05-06T05:38:12.789Z,25.83
2023-05-06T05:39:12.774Z,25.82
2023-05-06T05:40:12.782Z,25.81
2023-05-06T05:41:13.127Z,25.81
2023-05-06T05:42:12.820Z,25.81
2023-05-06T05:43:12.828Z,25.80
2023-05-06T05:44:12.777Z,25.80
2023-05-06T05:45:12.783Z,25.80
2023-05-06T05:46:12.818Z,25.79
2023-05-06T05:47:12.798Z,25.79
2023-05-06T05:48:12.730Z,25.80
2023-05-06T05:49:12.722Z,25.80
2023-05-06T05:50:12.716Z,25.81
2023-05-06T05:51:12.726Z,25.82
2023-05-06T05:52:12.767Z,25.82
2023-05-06T05:53:12.753Z,25.83
2023-05-06T05:54:12.800Z,25.83
2023-05-06T05:55:13.738Z,25.85
2023-05-06T05:56:12.812Z,25.86
2023-05-06T05:57:12.781Z,25.87
2023-05-06T05:58:12.825Z,25.88
2023-05-06T05:59:12.804Z,25.88
2023-05-06T06:00:13.732Z,25.89
2023-05-06T06:01:12.789Z,25.91
2023-05-06T06:02:12.847Z,25.91
2023-05-06T06:03:12.960Z,25.91
2023-05-06T06:04:12.910Z,25.93
2023-05-06T06:05:12.882Z,25.93
2023-05-06T06:06:12.885Z,25.93
2023-05-06T06:07:12.936Z,25.94
2023-05-06T06:08:12.894Z,25.95
2023-05-06T06:09:12.929Z,25.96
2023-05-06T06:10:12.952Z,25.96
2023-05-06T06:11:12.951Z,25.97
2023-05-06T06:12:12.948Z,25.98
2023-05-06T06:13:12.957Z,25.97
2023-05-06T06:14:12.993Z,25.98
2023-05-06T06:15:12.965Z,25.99
2023-05-06T06:16:13.144Z,25.99
2023-05-06T06:17:13.062Z,26.01
2023-05-06T06:18:13.058Z,26.00
2023-05-06T06:19:13.039Z,26.00
2023-05-06T06:20:13.755Z,26.01
2023-05-06T06:21:13.085Z,26.01
2023-05-06T06:22:13.112Z,26.01
2023-05-06T06:23:13.104Z,26.01
2023-05-06T06:24:13.101Z,26.00
2023-05-06T06:25:13.255Z,26.01
2023-05-06T06:26:13.149Z,26.01
2023-05-06T06:27:13.193Z,26.01
2023-05-06T06:28:13.135Z,26.01
2023-05-06T06:29:13.177Z,26.01
2023-05-06T06:30:13.176Z,26.01
2023-05-06T06:31:13.195Z,26.02
2023-05-06T06:32:13.285Z,26.01
2023-05-06T06:33:13.197Z,26.02
2023-05-06T06:34:13.208Z,26.04
2023-05-06T06:35:13.248Z,26.03
2023-05-06T06:36:13.257Z,26.04
2023-05-06T06:37:13.247Z,26.04
2023-05-06T06:38:13.243Z,26.04
2023-05-06T06:39:13.252Z,26.05
2023-05-06T06:40:13.290Z,26.04
2023-05-06T06:41:13.315Z,26.03
2023-05-06T06:42:13.297Z,26.03
2023-05-06T06:43:13.266Z,26.03
2023-05-06T06:44:13.235Z,26.03
2023-05-06T06:45:13.316Z,26.02
2023-05-06T06:46:13.297Z,26.02
2023-05-06T06:47:13.229Z,26.01
2023-05-06T06:48:13.277Z,26.02
2023-05-06T06:49:13.277Z,26.02
2023-05-06T06:50:13.254Z,26.02
2023-05-06T06:51:13.249Z,26.02
2023-05-06T06:52:13.273Z,26.03
2023-05-06T06:53:13.269Z,26.02
2023-05-06T06:54:13.282Z,26.03
2023-05-06T06:55:13.427Z,26.03
2023-05-06T06:56:13.283Z,26.03
2023-05-06T06:57:13.337Z,26.03
2023-05-06T06:58:13.305Z,26.03
2023-05-06T06:59:13.245Z,26.03
2023-05-06T07:00:13.262Z,26.03
2023-05-06T07:01:13.300Z,26.02
2023-05-06T07:02:13.292Z,26.02
2023-05-06T07:03:13.258Z,26.01
2023-05-06T07:04:13.329Z,26.01
2023-05-06T07:05:13.368Z,26.00
2023-05-06T07:06:13.267Z,25.99
2023-05-06T07:07:13.275Z,25.99
2023-05-06T07:08:13.244Z,25.98
2023-05-06T07:09:13.265Z,25.99
2023-05-06T07:10:13.275Z,25.99
2023-05-06T07:11:13.264Z,25.99
2023-05-06T07:12:13.272Z,25.98
2023-05-06T07:13:13.533Z,25.97
2023-05-06T07:14:13.264Z,25.96
2023-05-06T07:15:13.518Z,25.95
2023-05-06T07:16:13.264Z,25.96
2023-05-06T07:17:13.315Z,25.96
2023-05-06T07:18:13.329Z,25.96
2023-05-06T07:19:13.295Z,25.96
2023-05-06T07:20:13.345Z,25.96
2023-05-06T07:21:13.306Z,25.95
2023-05-06T07:22:13.306Z,25.95
2023-05-06T07:23:13.318Z,25.95
2023-05-06T07:24:13.313Z,25.94
2023-05-06T07:25:13.408Z,25.96
2023-05-06T07:26:13.332Z,25.96
2023-05-06T07:27:13.350Z,25.96
2023-05-06T07:28:13.331Z,25.95
2023-05-06T07:29:13.425Z,25.96
2023-05-06T07:30:13.294Z,25.97
2023-05-06T07:31:13.380Z,25.99
2023-05-06T07:32:13.290Z,25.99
2023-05-06T07:33:13.306Z,25.99
2023-05-06T07:34:13.294Z,26.00
2023-05-06T07:35:13.339Z,26.01
2023-05-06T07:36:13.247Z,26.02
2023-05-06T07:37:13.270Z,26.02
2023-05-06T07:38:13.257Z,26.03
2023-05-06T07:39:13.266Z,26.03
2023-05-06T07:40:13.280Z,26.04
2023-05-06T07:41:13.268Z,26.04
2023-05-06T07:42:13.283Z,26.04
2023-05-06T07:43:13.286Z,26.05
2023-05-06T07:44:13.248Z,26.06
2023-05-06T07:45:13.449Z,26.06
2023-05-06T07:46:13.312Z,26.07
2023-05-06T07:47:13.309Z,26.07
2023-05-06T07:48:13.369Z,26.08
2023-05-06T07:49:13.266Z,26.08
2023-05-06T07:50:13.317Z,26.09
2023-05-06T07:51:13.317Z,26.09
2023-05-06T07:52:13.347Z,26.09
2023-05-06T07:53:13.331Z,26.10
2023-05-06T07:54:13.357Z,26.10
2023-05-06T07:55:13.631Z,26.10
2023-05-06T07:56:13.378Z,26.11
2023-05-06T07:57:13.465Z,26.12
2023-05-06T07:58:13.408Z,26.12
2023-05-06T07:59:13.417Z,26.13
2023-05-06T08:00:13.429Z,26.13
2023-05-06T08:01:13.519Z,26.14
2023-05-06T08:02:13.507Z,26.15
2023-05-06T08:03:13.540Z,26.16
2023-05-06T08:04:13.712Z,26.17
2023-05-06T08:05:13.511Z,26.18
2023-05-06T08:06:13.477Z,26.19
2023-05-06T08:07:13.529Z,26.20
2023-05-06T08:08:13.529Z,26.20
2023-05-06T08:09:22.004Z,26.21
2023-05-06T08:10:14.504Z,26.21
2023-05-06T08:11:13.442Z,26.21
2023-05-06T08:12:13.434Z,26.21
2023-05-06T08:13:13.487Z,26.22
2023-05-06T08:14:13.337Z,26.23
2023-05-06T08:15:13.407Z,26.24
2023-05-06T08:16:13.284Z,26.24
2023-05-06T08:17:13.265Z,26.25
2023-05-06T08:18:21.530Z,26.25
2023-05-06T08:19:14.113Z,26.25
2023-05-06T08:20:13.057Z,26.27
2023-05-06T08:21:13.052Z,26.28
2023-05-06T08:22:12.997Z,26.29
2023-05-06T08:23:12.953Z,26.30
2023-05-06T08:24:12.890Z,26.30
2023-05-06T08:25:12.996Z,26.30
2023-05-06T08:26:12.793Z,26.31
2023-05-06T08:27:12.764Z,26.32
2023-05-06T08:28:12.720Z,26.31
2023-05-06T08:29:12.678Z,26.32
2023-05-06T08:30:12.722Z,26.32
2023-05-06T08:31:12.768Z,26.29
2023-05-06T08:32:12.741Z,26.27
2023-05-06T08:33:12.794Z,26.26
2023-05-06T08:34:12.798Z,26.25
2023-05-06T08:35:12.977Z,26.25
2023-05-06T08:36:12.797Z,26.24
2023-05-06T08:37:12.793Z,26.23
2023-05-06T08:38:12.805Z,26.23
2023-05-06T08:39:12.762Z,26.23
2023-05-06T08:40:12.777Z,26.22
2023-05-06T08:41:12.792Z,26.22
2023-05-06T08:42:12.835Z,26.23
2023-05-06T08:43:12.835Z,26.22
2023-05-06T08:44:12.785Z,26.22
2023-05-06T08:45:12.866Z,26.22
2023-05-06T08:46:12.810Z,26.23
2023-05-06T08:47:12.809Z,26.22
2023-05-06T08:48:12.852Z,26.22
2023-05-06T08:49:12.852Z,26.21
2023-05-06T08:50:12.877Z,26.21
2023-05-06T08:51:12.849Z,26.19
2023-05-06T08:52:12.801Z,26.18
2023-05-06T08:53:12.807Z,26.19
2023-05-06T08:54:12.803Z,26.18
2023-05-06T08:55:13.109Z,26.18
2023-05-06T08:56:12.886Z,26.17
2023-05-06T08:57:12.888Z,26.17
2023-05-06T08:58:12.885Z,26.18
2023-05-06T08:59:12.880Z,26.18
2023-05-06T09:00:12.915Z,26.18
2023-05-06T09:01:12.911Z,26.18
2023-05-06T09:02:12.938Z,26.19
2023-05-06T09:03:13.061Z,26.19
2023-05-06T09:04:12.896Z,26.19
2023-05-06T09:05:13.157Z,26.18
2023-05-06T09:06:12.930Z,26.17
2023-05-06T09:07:12.910Z,26.16
2023-05-06T09:08:12.910Z,26.14
2023-05-06T09:09:12.899Z,26.12
2023-05-06T09:10:12.886Z,26.09
2023-05-06T09:11:12.924Z,26.09
2023-05-06T09:12:12.900Z,26.08
2023-05-06T09:13:13.020Z,26.08
2023-05-06T09:14:12.909Z,26.07
2023-05-06T09:15:13.181Z,26.07
2023-05-06T09:16:12.989Z,26.06
2023-05-06T09:17:12.966Z,26.07
2023-05-06T09:18:13.041Z,26.07
2023-05-06T09:19:12.959Z,26.05
2023-05-06T09:20:12.922Z,26.04
2023-05-06T09:21:12.902Z,26.04
2023-05-06T09:22:12.938Z,26.03
2023-05-06T09:23:12.944Z,26.03
2023-05-06T09:24:12.914Z,26.04
2023-05-06T09:25:13.073Z,26.04
2023-05-06T09:26:12.921Z,26.04
2023-05-06T09:27:15.066Z,26.04
2023-05-06T09:28:12.938Z,26.03
2023-05-06T09:29:12.943Z,26.04
2023-05-06T09:30:12.877Z,26.02
2023-05-06T09:31:12.915Z,26.02
2023-05-06T09:32:12.892Z,26.02
2023-05-06T09:33:12.942Z,26.01
2023-05-06T09:34:12.920Z,26.00
2023-05-06T09:35:13.133Z,26.00
2023-05-06T09:36:12.884Z,26.02
2023-05-06T09:37:12.875Z,26.02
2023-05-06T09:38:12.941Z,26.02
2023-05-06T09:39:12.834Z,26.01
2023-05-06T09:40:12.847Z,26.01
2023-05-06T09:41:12.822Z,26.02
2023-05-06T09:42:12.871Z,26.00
2023-05-06T09:43:12.813Z,26.02
2023-05-06T09:44:12.864Z,26.02
2023-05-06T09:45:12.939Z,26.01
2023-05-06T09:46:12.826Z,26.01
2023-05-06T09:47:12.782Z,26.01
2023-05-06T09:48:12.811Z,26.01
2023-05-06T09:49:12.770Z,26.00
2023-05-06T09:50:12.717Z,26.00
2023-05-06T09:51:12.696Z,26.00
2023-05-06T09:52:12.737Z,25.99
2023-05-06T09:53:12.741Z,26.00
2023-05-06T09:54:12.680Z,25.99
2023-05-06T09:55:12.914Z,25.99
2023-05-06T09:56:12.655Z,26.00
2023-05-06T09:57:12.640Z,26.01
2023-05-06T09:58:12.599Z,26.02
2023-05-06T09:59:12.594Z,26.01
2023-05-06T10:00:12.678Z,26.01
2023-05-06T10:01:15.195Z,26.01
2023-05-06T10:02:13.582Z,26.01
2023-05-06T10:03:12.619Z,26.02
2023-05-06T10:04:12.567Z,26.03
2023-05-06T10:05:12.673Z,26.03
2023-05-06T10:06:12.335Z,26.02
2023-05-06T10:07:12.306Z,26.03
2023-05-06T10:08:12.292Z,26.03
2023-05-06T10:09:12.222Z,26.03
2023-05-06T10:10:12.287Z,26.03
2023-05-06T10:11:12.215Z,26.03
2023-05-06T10:12:12.112Z,26.04
2023-05-06T10:13:12.147Z,26.04
2023-05-06T10:14:12.036Z,26.06
2023-05-06T10:15:12.183Z,26.06
2023-05-06T10:16:14.556Z,26.07
2023-05-06T10:17:11.957Z,26.07
2023-05-06T10:18:11.821Z,26.08
2023-05-06T10:19:11.800Z,26.09
2023-05-06T10:20:11.730Z,26.10
2023-05-06T10:21:11.703Z,26.11
2023-05-06T10:22:11.642Z,26.12
2023-05-06T10:23:11.591Z,26.13
2023-05-06T10:24:11.647Z,26.15
2023-05-06T10:25:11.687Z,26.16
2023-05-06T10:26:11.499Z,26.17
2023-05-06T10:27:11.437Z,26.17
2023-05-06T10:28:23.011Z,26.19
2023-05-06T10:29:12.356Z,26.18
2023-05-06T10:30:11.271Z,26.19
2023-05-06T10:31:11.283Z,26.21
2023-05-06T10:32:11.171Z,26.21
2023-05-06T10:33:11.128Z,26.23
2023-05-06T10:34:11.126Z,26.24
2023-05-06T10:35:11.265Z,26.25
2023-05-06T10:36:11.067Z,26.26
2023-05-06T10:37:10.960Z,26.26
2023-05-06T10:38:10.912Z,26.27
2023-05-06T10:39:10.913Z,26.28
2023-05-06T10:40:10.932Z,26.29
2023-05-06T10:41:10.968Z,26.30
2023-05-06T10:42:10.927Z,26.30
2023-05-06T10:43:10.896Z,26.31
2023-05-06T10:44:10.920Z,26.32
2023-05-06T10:45:11.120Z,26.33
2023-05-06T10:46:10.988Z,26.33
2023-05-06T10:47:10.890Z,26.34
2023-05-06T10:48:10.957Z,26.35
2023-05-06T10:49:11.015Z,26.35
2023-05-06T10:50:10.894Z,26.35
2023-05-06T10:51:10.906Z,26.37
2023-05-06T10:52:10.912Z,26.37
2023-05-06T10:53:10.913Z,26.37
2023-05-06T10:54:10.897Z,26.38
2023-05-06T10:55:11.055Z,26.39
2023-05-06T10:56:10.925Z,26.39
2023-05-06T10:57:10.959Z,26.40
2023-05-06T10:58:10.899Z,26.41
2023-05-06T10:59:10.899Z,26.42
2023-05-06T11:00:10.904Z,26.43
2023-05-06T11:01:10.942Z,26.43
2023-05-06T11:02:10.918Z,26.43
2023-05-06T11:03:11.000Z,26.45
2023-05-06T11:04:10.913Z,26.46
2023-05-06T11:05:11.085Z,26.46
2023-05-06T11:06:10.888Z,26.46
2023-05-06T11:07:10.937Z,26.47
2023-05-06T11:08:10.918Z,26.47
2023-05-06T11:09:10.918Z,26.47
2023-05-06T11:10:10.935Z,26.48
2023-05-06T11:11:10.911Z,26.48
2023-05-06T11:12:10.883Z,26.48
2023-05-06T11:13:11.051Z,26.49
2023-05-06T11:14:10.924Z,26.49
2023-05-06T11:15:11.133Z,26.50
2023-05-06T11:16:10.925Z,26.52
2023-05-06T11:17:10.964Z,26.52
2023-05-06T11:18:10.924Z,26.51
2023-05-06T11:19:10.911Z,26.51
2023-05-06T11:20:11.194Z,26.51
2023-05-06T11:21:10.890Z,26.51
2023-05-06T11:22:10.953Z,26.52
2023-05-06T11:23:10.883Z,26.52
2023-05-06T11:24:10.873Z,26.53
2023-05-06T11:25:10.878Z,26.52
2023-05-06T11:26:10.886Z,26.53
2023-05-06T11:27:10.848Z,26.53
2023-05-06T11:28:10.873Z,26.53
2023-05-06T11:29:10.945Z,26.53
2023-05-06T11:30:11.088Z,26.54
2023-05-06T11:31:10.860Z,26.54
2023-05-06T11:32:10.833Z,26.54
2023-05-06T11:33:10.846Z,26.54
2023-05-06T11:34:10.853Z,26.54
2023-05-06T11:35:10.853Z,26.53
2023-05-06T11:36:10.810Z,26.54
2023-05-06T11:37:10.822Z,26.53
2023-05-06T11:38:10.923Z,26.52
2023-05-06T11:39:10.808Z,26.52
2023-05-06T11:40:11.090Z,26.50
2023-05-06T11:41:10.829Z,26.50
2023-05-06T11:42:10.828Z,26.50
2023-05-06T11:43:10.837Z,26.50
2023-05-06T11:44:11.635Z,26.50
2023-05-06T11:45:10.857Z,26.49
2023-05-06T11:46:10.862Z,26.50
2023-05-06T11:47:10.821Z,26.50
2023-05-06T11:48:10.817Z,26.51
2023-05-06T11:49:10.792Z,26.52
2023-05-06T11:50:11.094Z,26.52
2023-05-06T11:51:10.815Z,26.53
2023-05-06T11:52:10.861Z,26.53
2023-05-06T11:53:10.805Z,26.54
2023-05-06T11:54:10.824Z,26.54
2023-05-06T11:55:10.788Z,26.54
2023-05-06T11:56:10.836Z,26.55
2023-05-06T11:57:10.811Z,26.56
2023-05-06T11:58:10.805Z,26.57
2023-05-06T11:59:10.788Z,26.57
2023-05-06T12:00:10.926Z,26.58
2023-05-06T12:01:10.771Z,26.58
2023-05-06T12:02:10.773Z,26.58
2023-05-06T12:03:10.815Z,26.58
2023-05-06T12:04:10.843Z,26.59
2023-05-06T12:05:10.799Z,26.59
2023-05-06T12:06:10.752Z,26.60
2023-05-06T12:07:10.844Z,26.60
2023-05-06T12:08:20.040Z,26.60
2023-05-06T12:09:11.731Z,26.59
2023-05-06T12:10:10.846Z,26.59
2023-05-06T12:11:10.613Z,26.59
2023-05-06T12:12:10.566Z,26.59
2023-05-06T12:13:10.526Z,26.60
2023-05-06T12:14:10.470Z,26.59
2023-05-06T12:15:10.442Z,26.59
2023-05-06T12:16:10.373Z,26.59
2023-05-06T12:17:10.449Z,26.60
2023-05-06T12:18:10.261Z,26.59
2023-05-06T12:19:10.243Z,26.59
2023-05-06T12:20:10.360Z,26.59
2023-05-06T12:21:10.132Z,26.59
2023-05-06T12:22:10.111Z,26.59
2023-05-06T12:23:10.170Z,26.60
2023-05-06T12:24:10.180Z,26.60
2023-05-06T12:25:10.272Z,26.60
2023-05-06T12:26:10.146Z,26.61
2023-05-06T12:27:10.116Z,26.61
2023-05-06T12:28:10.184Z,26.61
2023-05-06T12:29:10.118Z,26.60
2023-05-06T12:30:10.220Z,26.61
2023-05-06T12:31:10.109Z,26.60
2023-05-06T12:32:10.518Z,26.60
2023-05-06T12:33:10.145Z,26.60
2023-05-06T12:34:10.130Z,26.59
2023-05-06T12:35:10.079Z,26.59
2023-05-06T12:36:10.095Z,26.59
2023-05-06T12:37:10.073Z,26.60
2023-05-06T12:38:10.095Z,26.60
2023-05-06T12:39:10.107Z,26.60
2023-05-06T12:40:10.258Z,26.60
2023-05-06T12:41:10.107Z,26.60
2023-05-06T12:42:10.077Z,26.61
2023-05-06T12:43:10.058Z,26.61
2023-05-06T12:44:10.081Z,26.61
2023-05-06T12:45:10.042Z,26.62
2023-05-06T12:46:10.086Z,26.63
2023-05-06T12:47:10.085Z,26.64
2023-05-06T12:48:10.106Z,26.64
2023-05-06T12:49:10.155Z,26.65
2023-05-06T12:50:10.241Z,26.65
2023-05-06T12:51:10.020Z,26.65
2023-05-06T12:52:10.011Z,26.67